createdAt,value
2022-08-03T00:00:14.610Z,5.53
2022-08-03T00:01:18.371Z,5.48
2022-08-03T00:02:21.485Z,5.65
2022-08-03T00:03:24.526Z,7.63
2022-08-03T00:04:33.619Z,5.39
2022-08-03T00:05:35.557Z,8.48
2022-08-03T00:06:40.422Z,5.84
2022-08-03T00:07:43.383Z,6.86
2022-08-03T00:08:47.329Z,6.00
2022-08-03T00:09:50.375Z,5.92
2022-08-03T00:10:53.483Z,6.52
2022-08-03T00:11:56.569Z,5.69
2022-08-03T00:12:59.550Z,8.30
2022-08-03T00:14:04.824Z,5.33
2022-08-03T00:15:11.155Z,5.48
2022-08-03T00:16:29.138Z,5.61
2022-08-03T00:17:52.650Z,5.99
2022-08-03T00:18:37.703Z,6.01
2022-08-03T00:19:40.806Z,5.92
2022-08-03T00:20:44.165Z,5.64
2022-08-03T00:21:47.150Z,5.61
2022-08-03T00:22:50.418Z,5.59
2022-08-03T00:23:53.488Z,5.66
2022-08-03T00:24:56.394Z,5.47
2022-08-03T00:26:31.116Z,5.49
2022-08-03T00:27:34.155Z,5.38
2022-08-03T00:28:38.792Z,5.15
2022-08-03T00:29:59.657Z,5.31
2022-08-03T00:30:46.759Z,5.51
2022-08-03T00:31:52.465Z,5.13
2022-08-03T00:32:55.171Z,5.24
2022-08-03T00:33:59.534Z,4.78
2022-08-03T00:35:08.274Z,5.14
2022-08-03T00:36:08.783Z,5.57
2022-08-03T00:37:11.753Z,5.24
2022-08-03T00:38:14.747Z,5.04
2022-08-03T00:39:17.696Z,5.50
2022-08-03T00:40:22.750Z,5.74
2022-08-03T00:41:25.888Z,5.51
2022-08-03T00:42:28.851Z,5.26
2022-08-03T00:43:31.817Z,5.26
2022-08-03T00:44:44.756Z,5.72
2022-08-03T00:45:48.214Z,5.31
2022-08-03T00:46:53.111Z,5.82
2022-08-03T00:47:56.889Z,5.61
2022-08-03T00:48:59.777Z,5.29
2022-08-03T00:50:03.503Z,5.04
2022-08-03T00:51:06.802Z,5.71
2022-08-03T00:52:11.261Z,4.92
2022-08-03T00:53:14.608Z,5.45
2022-08-03T00:54:18.492Z,7.04
2022-08-03T00:55:21.667Z,5.62
2022-08-03T00:56:26.192Z,5.93
2022-08-03T00:57:31.664Z,5.46
2022-08-03T00:58:34.655Z,4.82
2022-08-03T00:59:38.759Z,6.05
2022-08-03T01:00:42.938Z,5.42
2022-08-03T01:01:46.074Z,4.93
2022-08-03T01:02:49.258Z,5.39
2022-08-03T01:03:52.446Z,5.30
2022-08-03T01:04:56.116Z,5.68
2022-08-03T01:06:17.950Z,5.66
2022-08-03T01:07:27.010Z,5.85
2022-08-03T01:08:48.992Z,5.53
2022-08-03T01:10:09.850Z,5.46
2022-08-03T01:11:19.339Z,6.70
2022-08-03T01:12:41.048Z,5.66
2022-08-03T01:15:18.626Z,5.47
2022-08-03T01:16:25.823Z,5.24
2022-08-03T01:17:34.710Z,5.40
2022-08-03T01:18:44.245Z,5.28
2022-08-03T01:20:05.754Z,5.61
2022-08-03T01:21:15.047Z,6.18
2022-08-03T01:22:31.365Z,5.52
2022-08-03T01:23:50.068Z,5.07
2022-08-03T01:25:05.590Z,6.95
2022-08-03T01:26:24.705Z,5.62
2022-08-03T01:27:52.207Z,5.73
2022-08-03T01:29:04.805Z,7.26
2022-08-03T01:30:09.962Z,5.59
2022-08-03T01:31:15.663Z,5.41
2022-08-03T01:32:57.970Z,5.36
2022-08-03T01:33:30.582Z,6.27
2022-08-03T01:34:37.139Z,5.84
2022-08-03T01:35:46.340Z,5.52
2022-08-03T01:36:52.200Z,5.71
2022-08-03T01:38:04.869Z,5.11
2022-08-03T01:39:08.968Z,6.49
2022-08-03T01:40:14.033Z,5.51
2022-08-03T01:41:20.407Z,5.36
2022-08-03T01:42:25.060Z,6.33
2022-08-03T01:43:58.976Z,5.63
2022-08-03T01:44:41.444Z,5.03
2022-08-03T01:45:44.844Z,5.62
2022-08-03T01:46:50.734Z,5.50
2022-08-03T01:47:55.156Z,5.34
2022-08-03T01:48:59.629Z,5.18
2022-08-03T01:50:04.994Z,5.16
2022-08-03T01:51:09.002Z,5.45
2022-08-03T01:52:15.409Z,4.69
2022-08-03T01:53:20.064Z,6.13
2022-08-03T01:54:25.576Z,5.35
2022-08-03T01:55:31.724Z,6.08
2022-08-03T01:56:37.524Z,5.08
2022-08-03T01:58:05.785Z,5.39
2022-08-03T01:58:51.241Z,5.34
2022-08-03T01:59:57.267Z,5.45
2022-08-03T02:01:02.115Z,6.88
2022-08-03T02:02:29.075Z,5.26
2022-08-03T02:03:15.042Z,5.83
2022-08-03T02:04:19.045Z,5.43
2022-08-03T02:05:24.337Z,7.30
2022-08-03T02:07:00.281Z,6.10
2022-08-03T02:07:38.984Z,5.78
2022-08-03T02:08:44.386Z,5.97
2022-08-03T02:09:50.645Z,5.66
2022-08-03T02:10:56.525Z,5.88
2022-08-03T02:12:00.424Z,5.59
2022-08-03T02:13:06.331Z,5.31
2022-08-03T02:14:10.213Z,5.38
2022-08-03T02:15:16.212Z,5.17
2022-08-03T02:16:21.881Z,5.21
2022-08-03T02:17:38.570Z,5.34
2022-08-03T02:18:32.972Z,5.23
2022-08-03T02:19:37.235Z,5.21
2022-08-03T02:20:42.718Z,4.90
2022-08-03T02:21:55.990Z,5.08
2022-08-03T02:22:51.828Z,5.69
2022-08-03T02:23:55.181Z,5.62
2022-08-03T02:24:58.142Z,4.77
2022-08-03T02:26:04.072Z,5.44
2022-08-03T02:27:13.616Z,5.37
2022-08-03T02:28:19.577Z,5.17
2022-08-03T02:29:39.277Z,4.96
2022-08-03T02:30:38.646Z,5.37
2022-08-03T02:31:43.369Z,5.39
2022-08-03T02:32:52.697Z,4.72
2022-08-03T02:34:05.171Z,5.37
2022-08-03T02:35:11.781Z,6.96
2022-08-03T02:36:18.715Z,4.84
2022-08-03T02:37:25.154Z,8.36
2022-08-03T02:38:31.022Z,5.78
2022-08-03T02:39:36.362Z,5.32
2022-08-03T02:40:41.784Z,5.70
2022-08-03T02:41:51.634Z,5.26
2022-08-03T02:42:57.642Z,4.93
2022-08-03T02:44:07.101Z,5.53
2022-08-03T02:45:15.080Z,7.22
2022-08-03T02:46:22.037Z,5.97
2022-08-03T02:47:29.241Z,5.51
2022-08-03T02:48:36.215Z,9.62
2022-08-03T02:49:51.583Z,6.95
2022-08-03T02:50:47.573Z,5.59
2022-08-03T02:51:52.959Z,7.53
2022-08-03T02:52:58.272Z,4.85
2022-08-03T02:54:04.020Z,4.96
2022-08-03T02:55:10.013Z,5.46
2022-08-03T02:56:15.939Z,8.13
2022-08-03T02:57:21.061Z,5.54
2022-08-03T02:58:24.657Z,5.31
2022-08-03T02:59:30.742Z,5.76
2022-08-03T03:00:35.614Z,5.48
2022-08-03T03:01:39.702Z,4.94
2022-08-03T03:02:43.930Z,5.51
2022-08-03T03:03:49.302Z,4.98
2022-08-03T03:05:54.652Z,5.13
2022-08-03T03:06:00.475Z,5.34
2022-08-03T03:07:05.548Z,5.60
2022-08-03T03:08:18.758Z,8.02
2022-08-03T03:09:21.419Z,5.54
2022-08-03T03:10:25.614Z,5.94
2022-08-03T03:11:30.102Z,5.60
2022-08-03T03:12:36.798Z,6.04
2022-08-03T03:13:42.146Z,5.67
2022-08-03T03:14:45.160Z,5.78
2022-08-03T03:15:48.819Z,5.82
2022-08-03T03:16:52.434Z,6.28
2022-08-03T03:17:59.119Z,5.81
2022-08-03T03:19:02.746Z,5.57
2022-08-03T03:20:08.016Z,6.03
2022-08-03T03:21:12.432Z,6.07
2022-08-03T03:22:17.554Z,5.70
2022-08-03T03:23:23.052Z,6.68
2022-08-03T03:24:28.580Z,5.51
2022-08-03T03:25:32.475Z,5.75
2022-08-03T03:26:40.689Z,5.45
2022-08-03T03:27:41.721Z,5.38
2022-08-03T03:28:46.832Z,6.33
2022-08-03T03:29:50.268Z,5.70
2022-08-03T03:30:53.565Z,5.92
2022-08-03T03:31:56.859Z,6.08
2022-08-03T03:33:00.139Z,6.48
2022-08-03T03:34:04.692Z,5.96
2022-08-03T03:35:09.499Z,6.00
2022-08-03T03:36:14.704Z,5.78
2022-08-03T03:37:17.831Z,5.65
2022-08-03T03:38:20.803Z,6.66
2022-08-03T03:39:23.782Z,6.40
2022-08-03T03:40:27.530Z,6.13
2022-08-03T03:41:33.925Z,6.10
2022-08-03T03:42:38.758Z,6.52
2022-08-03T03:43:42.675Z,6.01
2022-08-03T03:44:45.724Z,6.09
2022-08-03T03:45:49.220Z,6.72
2022-08-03T03:46:52.400Z,6.15
2022-08-03T03:47:55.390Z,5.83
2022-08-03T03:48:58.408Z,6.08
2022-08-03T03:50:05.978Z,5.83
2022-08-03T03:51:09.788Z,6.60
2022-08-03T03:52:12.661Z,7.49
2022-08-03T03:53:15.916Z,6.37
2022-08-03T03:54:19.125Z,6.61
2022-08-03T03:55:22.485Z,6.93
2022-08-03T03:56:26.481Z,6.38
2022-08-03T03:57:29.711Z,7.32
2022-08-03T03:58:33.025Z,8.07
2022-08-03T03:59:40.721Z,6.61
2022-08-03T04:01:39.951Z,6.50
2022-08-03T04:02:43.601Z,11.06
2022-08-03T04:03:46.581Z,6.31
2022-08-03T04:05:07.780Z,5.89
2022-08-03T04:06:30.668Z,7.26
2022-08-03T04:07:55.592Z,6.45
2022-08-03T04:09:01.659Z,6.04
2022-08-03T04:10:26.847Z,6.42
2022-08-03T04:11:33.593Z,6.18
2022-08-03T04:12:39.285Z,6.51
2022-08-03T04:13:56.613Z,6.82
2022-08-03T04:15:04.190Z,6.82
2022-08-03T04:16:10.482Z,6.74
2022-08-03T04:17:14.892Z,7.15
2022-08-03T04:18:18.801Z,6.38
2022-08-03T04:19:28.459Z,6.22
2022-08-03T04:20:35.459Z,6.94
2022-08-03T04:21:42.141Z,7.23
2022-08-03T04:22:47.358Z,6.88
2022-08-03T04:23:54.122Z,7.41
2022-08-03T04:25:00.875Z,8.27
2022-08-03T04:26:09.035Z,7.28
2022-08-03T04:27:15.121Z,7.54
2022-08-03T04:28:31.370Z,7.52
2022-08-03T04:29:26.550Z,8.02
2022-08-03T04:30:33.194Z,8.00
2022-08-03T04:31:38.086Z,7.96
2022-08-03T04:32:46.008Z,7.96
2022-08-03T04:33:51.385Z,7.51
2022-08-03T04:34:54.499Z,8.24
2022-08-03T04:36:02.873Z,7.81
2022-08-03T04:37:07.352Z,8.47
2022-08-03T04:38:14.081Z,8.86
2022-08-03T04:39:26.229Z,9.12
2022-08-03T04:40:38.209Z,9.35
2022-08-03T04:42:04.712Z,9.91
2022-08-03T04:42:50.585Z,9.81
2022-08-03T04:43:58.753Z,9.45
2022-08-03T04:45:03.672Z,9.82
2022-08-03T04:46:08.126Z,10.67
2022-08-03T04:47:11.199Z,10.51
2022-08-03T04:48:15.064Z,9.56
2022-08-03T04:49:19.835Z,10.06
2022-08-03T04:50:27.579Z,8.57
2022-08-03T04:51:40.163Z,10.03
2022-08-03T04:52:44.039Z,9.71
2022-08-03T04:53:47.091Z,9.62
2022-08-03T04:54:51.165Z,9.38
2022-08-03T04:55:54.279Z,9.92
2022-08-03T04:56:57.516Z,10.25
2022-08-03T04:58:01.896Z,9.51
2022-08-03T04:59:04.904Z,9.64
2022-08-03T05:00:09.147Z,9.44
2022-08-03T05:01:12.511Z,9.34
2022-08-03T05:02:15.758Z,9.94
2022-08-03T05:03:23.692Z,9.58
2022-08-03T05:04:23.983Z,10.39
2022-08-03T05:05:49.014Z,10.05
2022-08-03T05:06:32.281Z,9.82
2022-08-03T05:07:36.703Z,9.84
2022-08-03T05:08:46.171Z,10.59
2022-08-03T05:09:50.042Z,9.92
2022-08-03T05:10:50.126Z,10.76
2022-08-03T05:11:53.344Z,10.09
2022-08-03T05:12:56.377Z,10.01
2022-08-03T05:13:59.347Z,10.11
2022-08-03T05:15:03.273Z,10.91
2022-08-03T05:16:06.441Z,10.08
2022-08-03T05:17:09.772Z,10.36
2022-08-03T05:18:14.322Z,10.19
2022-08-03T05:19:17.559Z,10.45
2022-08-03T05:20:22.088Z,10.76
2022-08-03T05:21:25.743Z,10.01
2022-08-03T05:22:30.559Z,10.90
2022-08-03T05:23:33.784Z,10.78
2022-08-03T05:24:36.658Z,11.14
2022-08-03T05:25:39.731Z,10.89
2022-08-03T05:26:44.623Z,11.62
2022-08-03T05:27:47.839Z,11.56
2022-08-03T05:28:52.031Z,11.89
2022-08-03T05:29:55.332Z,11.64
2022-08-03T05:30:58.457Z,11.54
2022-08-03T05:32:06.230Z,11.24
2022-08-03T05:33:08.266Z,11.32
2022-08-03T05:34:11.411Z,11.33
2022-08-03T05:36:01.034Z,11.41
2022-08-03T05:36:19.612Z,11.90
2022-08-03T05:37:22.481Z,11.22
2022-08-03T05:38:33.172Z,11.51
2022-08-03T05:39:30.624Z,11.71
2022-08-03T05:40:34.555Z,11.03
2022-08-03T05:41:37.724Z,11.91
2022-08-03T05:42:40.872Z,11.57
2022-08-03T05:43:44.710Z,10.78
2022-08-03T05:44:47.778Z,10.96
2022-08-03T05:46:12.353Z,11.63
2022-08-03T05:46:56.121Z,11.67
2022-08-03T05:47:59.084Z,11.84
2022-08-03T05:49:02.126Z,12.25
2022-08-03T05:50:06.156Z,11.93
2022-08-03T05:51:10.577Z,10.94
2022-08-03T05:52:15.746Z,12.55
2022-08-03T05:53:18.689Z,11.19
2022-08-03T05:54:21.724Z,12.31
2022-08-03T05:55:26.779Z,12.81
2022-08-03T05:56:30.370Z,12.02
2022-08-03T05:57:33.696Z,13.58
2022-08-03T05:58:36.769Z,12.49
2022-08-03T05:59:39.835Z,12.91
2022-08-03T06:00:44.871Z,13.06
2022-08-03T06:01:47.975Z,12.94
2022-08-03T06:02:51.344Z,13.39
2022-08-03T06:03:54.458Z,13.71
2022-08-03T06:04:57.512Z,13.13
2022-08-03T06:06:00.834Z,14.33
2022-08-03T06:07:03.988Z,12.64
2022-08-03T06:08:07.785Z,12.74
2022-08-03T06:09:11.043Z,13.61
2022-08-03T06:10:36.898Z,13.21
2022-08-03T06:11:22.439Z,13.29
2022-08-03T06:12:25.796Z,13.38
2022-08-03T06:13:29.030Z,14.43
2022-08-03T06:14:31.904Z,13.82
2022-08-03T06:15:34.962Z,14.30
2022-08-03T06:16:38.280Z,13.44
2022-08-03T06:17:48.648Z,14.18
2022-08-03T06:18:51.786Z,14.14
2022-08-03T06:19:54.646Z,14.74
2022-08-03T06:20:58.437Z,14.89
2022-08-03T06:22:03.359Z,15.39
2022-08-03T06:23:07.414Z,13.51
2022-08-03T06:24:10.803Z,15.07
2022-08-03T06:25:16.297Z,14.74
2022-08-03T06:26:20.204Z,14.02
2022-08-03T06:27:36.501Z,14.82
2022-08-03T06:28:52.978Z,15.14
2022-08-03T06:29:33.238Z,14.90
2022-08-03T06:30:36.423Z,14.59
2022-08-03T06:31:40.488Z,14.91
2022-08-03T06:32:43.909Z,15.19
2022-08-03T06:34:34.145Z,14.10
2022-08-03T06:34:54.063Z,15.56
2022-08-03T06:35:57.091Z,14.86
2022-08-03T06:37:02.232Z,16.09
2022-08-03T06:38:05.058Z,13.57
2022-08-03T06:39:08.356Z,14.61
2022-08-03T06:40:14.478Z,14.74
2022-08-03T06:41:17.752Z,14.76
2022-08-03T06:42:21.149Z,14.69
2022-08-03T06:43:25.997Z,15.04
2022-08-03T06:44:29.250Z,14.34
2022-08-03T06:45:32.829Z,15.76
2022-08-03T06:46:36.260Z,15.07
2022-08-03T06:47:40.040Z,16.19
2022-08-03T06:48:44.838Z,16.39
2022-08-03T06:50:13.007Z,16.07
2022-08-03T06:50:53.123Z,17.62
2022-08-03T06:52:05.021Z,16.56
2022-08-03T06:53:01.937Z,16.68
2022-08-03T06:54:05.027Z,16.88
2022-08-03T06:55:08.282Z,15.44
2022-08-03T06:56:11.938Z,16.41
2022-08-03T06:57:16.886Z,16.56
2022-08-03T06:58:19.875Z,16.31
2022-08-03T07:00:06.191Z,17.49
2022-08-03T07:00:28.909Z,16.96
2022-08-03T07:01:31.876Z,16.21
2022-08-03T07:02:35.014Z,16.95
2022-08-03T07:03:37.881Z,17.52
2022-08-03T07:04:42.848Z,16.85
2022-08-03T07:06:16.880Z,16.91
2022-08-03T07:07:20.111Z,17.84
2022-08-03T07:08:33.552Z,16.95
2022-08-03T07:09:28.669Z,16.77
2022-08-03T07:10:32.082Z,17.69
2022-08-03T07:11:35.109Z,16.01
2022-08-03T07:12:52.813Z,17.23
2022-08-03T07:13:44.623Z,17.12
2022-08-03T07:14:47.627Z,16.36
2022-08-03T07:15:55.328Z,16.25
2022-08-03T07:16:55.787Z,17.30
2022-08-03T07:17:58.896Z,16.09
2022-08-03T07:19:01.935Z,16.09
2022-08-03T07:20:07.169Z,15.83
2022-08-03T07:21:12.130Z,16.49
2022-08-03T07:22:15.383Z,16.28
2022-08-03T07:23:19.124Z,15.76
2022-08-03T07:24:23.069Z,15.22
2022-08-03T07:25:26.133Z,14.95
2022-08-03T07:26:30.157Z,15.96
2022-08-03T07:27:33.252Z,14.67
2022-08-03T07:28:37.257Z,15.53
2022-08-03T07:29:40.267Z,16.23
2022-08-03T07:30:43.254Z,15.79
2022-08-03T07:31:46.367Z,15.83
2022-08-03T07:32:50.730Z,16.32
2022-08-03T07:33:54.086Z,16.48
2022-08-03T07:35:00.845Z,15.64
2022-08-03T07:36:02.704Z,15.84
2022-08-03T07:37:05.924Z,15.56
2022-08-03T07:38:09.088Z,15.03
2022-08-03T07:39:17.838Z,13.99
2022-08-03T07:40:17.385Z,14.63
2022-08-03T07:41:20.461Z,14.37
2022-08-03T07:42:23.774Z,14.83
2022-08-03T07:43:26.902Z,15.24
2022-08-03T07:44:29.973Z,15.01
2022-08-03T07:45:33.029Z,15.38
2022-08-03T07:46:36.191Z,14.93
2022-08-03T07:47:39.309Z,15.04
2022-08-03T07:48:42.381Z,14.49
2022-08-03T07:49:45.554Z,14.49
2022-08-03T07:50:48.742Z,14.94
2022-08-03T07:51:53.537Z,14.51
2022-08-03T07:52:57.660Z,14.82
2022-08-03T07:54:01.024Z,14.73
2022-08-03T07:55:06.592Z,14.63
2022-08-03T07:56:11.243Z,15.31
2022-08-03T07:57:14.728Z,13.79
2022-08-03T07:58:21.934Z,15.45
2022-08-03T07:59:22.953Z,13.99
2022-08-03T08:00:26.843Z,14.24
2022-08-03T08:01:32.153Z,15.49
2022-08-03T08:02:35.349Z,16.29
2022-08-03T08:03:41.144Z,15.28
2022-08-03T08:04:43.206Z,14.51
2022-08-03T08:05:46.160Z,14.74
2022-08-03T08:06:49.177Z,15.86
2022-08-03T08:07:52.452Z,15.23
2022-08-03T08:08:57.485Z,15.58
2022-08-03T08:10:00.605Z,15.67
2022-08-03T08:11:03.741Z,15.60
2022-08-03T08:12:07.612Z,15.23
2022-08-03T08:13:12.621Z,16.98
2022-08-03T08:14:15.776Z,16.76
2022-08-03T08:15:19.026Z,16.76
2022-08-03T08:16:22.777Z,17.24
2022-08-03T08:17:25.900Z,14.21
2022-08-03T08:18:32.106Z,15.69
2022-08-03T08:19:35.147Z,15.41
2022-08-03T08:20:40.119Z,15.76
2022-08-03T08:22:02.052Z,14.97
2022-08-03T08:22:49.925Z,15.99
2022-08-03T08:23:57.973Z,16.40
2022-08-03T08:25:01.314Z,16.80
2022-08-03T08:26:05.309Z,16.91
2022-08-03T08:27:08.495Z,18.08
2022-08-03T08:28:31.451Z,18.11
2022-08-03T08:29:16.570Z,18.47
2022-08-03T08:30:22.954Z,17.49
2022-08-03T08:31:26.054Z,18.07
2022-08-03T08:32:29.081Z,17.65
2022-08-03T08:34:03.686Z,17.52
2022-08-03T08:34:39.032Z,17.92
2022-08-03T08:35:42.188Z,17.23
2022-08-03T08:36:45.776Z,17.94
2022-08-03T08:37:50.986Z,16.79
2022-08-03T08:38:54.583Z,17.78
2022-08-03T08:39:58.083Z,17.65
2022-08-03T08:41:01.273Z,17.42
2022-08-03T08:42:04.445Z,16.12
2022-08-03T08:43:14.458Z,15.69
2022-08-03T08:44:17.502Z,18.03
2022-08-03T08:45:20.648Z,20.39
2022-08-03T08:46:24.228Z,16.44
2022-08-03T08:47:30.084Z,15.41
2022-08-03T08:48:37.546Z,16.08
2022-08-03T08:49:49.444Z,16.36
2022-08-03T08:50:47.036Z,16.31
2022-08-03T08:52:00.651Z,16.61
2022-08-03T08:53:00.581Z,16.61
2022-08-03T08:54:06.726Z,17.44
2022-08-03T08:55:13.107Z,17.03
2022-08-03T08:56:17.035Z,16.79
2022-08-03T08:57:43.702Z,18.44
2022-08-03T08:58:55.967Z,17.82
2022-08-03T09:00:01.068Z,17.71
2022-08-03T09:01:04.321Z,17.16
2022-08-03T09:02:07.476Z,17.51
2022-08-03T09:03:11.642Z,18.36
2022-08-03T09:04:17.500Z,16.91
2022-08-03T09:05:31.665Z,17.63
2022-08-03T09:06:27.444Z,16.56
2022-08-03T09:07:30.920Z,17.58
2022-08-03T09:08:34.286Z,17.21
2022-08-03T09:10:08.298Z,16.64
2022-08-03T09:10:42.231Z,18.42
2022-08-03T09:11:57.588Z,16.98
2022-08-03T09:12:52.379Z,17.57
2022-08-03T09:13:55.440Z,15.88
2022-08-03T09:15:16.580Z,14.24
2022-08-03T09:16:18.691Z,15.13
2022-08-03T09:17:21.897Z,13.37
2022-08-03T09:18:32.586Z,13.56
2022-08-03T09:19:36.373Z,14.96
2022-08-03T09:20:39.661Z,13.29
2022-08-03T09:21:42.918Z,13.24
2022-08-03T09:23:09.681Z,13.61
2022-08-03T09:24:13.127Z,12.86
2022-08-03T09:25:24.286Z,12.66
2022-08-03T09:26:27.053Z,12.68
2022-08-03T09:27:34.514Z,11.89
2022-08-03T09:29:00.005Z,11.85
2022-08-03T09:29:46.035Z,13.13
2022-08-03T09:30:59.208Z,12.09
2022-08-03T09:32:03.757Z,12.65
2022-08-03T09:34:24.458Z,12.59
2022-08-03T09:35:51.686Z,11.37
2022-08-03T09:36:47.406Z,11.40
2022-08-03T09:38:12.767Z,11.94
2022-08-03T09:39:10.783Z,10.67
2022-08-03T09:40:18.438Z,10.83
2022-08-03T09:41:21.592Z,10.84
2022-08-03T09:42:26.578Z,10.30
2022-08-03T09:43:33.408Z,10.25
2022-08-03T09:44:42.090Z,11.39
2022-08-03T09:45:45.832Z,10.57
2022-08-03T09:46:50.594Z,10.74
2022-08-03T09:47:53.668Z,10.02
2022-08-03T09:49:12.267Z,10.89
2022-08-03T09:50:15.636Z,10.54
2022-08-03T09:52:30.089Z,9.81
2022-08-03T09:52:50.043Z,9.97
2022-08-03T09:53:59.222Z,9.31
2022-08-03T09:54:53.525Z,10.07
2022-08-03T09:56:33.878Z,9.86
2022-08-03T09:57:06.647Z,9.88
2022-08-03T09:58:09.869Z,10.35
2022-08-03T09:59:16.132Z,10.87
2022-08-03T10:00:20.407Z,9.58
2022-08-03T10:01:27.414Z,9.81
2022-08-03T10:02:30.514Z,10.46
2022-08-03T10:03:36.021Z,10.25
2022-08-03T10:04:50.503Z,10.98
2022-08-03T10:05:58.996Z,10.52
2022-08-03T10:07:05.033Z,9.38
2022-08-03T10:08:11.697Z,9.18
2022-08-03T10:09:16.337Z,9.83
2022-08-03T10:10:30.109Z,11.14
2022-08-03T10:11:32.031Z,11.14
2022-08-03T10:12:35.084Z,11.36
2022-08-03T10:13:38.228Z,10.71
2022-08-03T10:14:43.999Z,10.66
2022-08-03T10:16:22.767Z,10.93
2022-08-03T10:16:52.568Z,11.39
2022-08-03T10:17:55.684Z,11.08
2022-08-03T10:18:58.928Z,11.13
2022-08-03T10:20:03.350Z,11.12
2022-08-03T10:21:09.907Z,11.17
2022-08-03T10:22:16.506Z,10.12
2022-08-03T10:23:21.118Z,10.49
2022-08-03T10:24:26.803Z,10.35
2022-08-03T10:25:33.555Z,10.34
2022-08-03T10:26:39.318Z,10.04
2022-08-03T10:27:47.170Z,10.81
2022-08-03T10:28:52.962Z,10.38
2022-08-03T10:29:58.201Z,10.97
2022-08-03T10:31:04.405Z,10.53
2022-08-03T10:32:28.890Z,11.42
2022-08-03T10:33:51.197Z,10.86
2022-08-03T10:34:44.513Z,12.00
2022-08-03T10:35:49.841Z,10.68
2022-08-03T10:36:56.546Z,11.04
2022-08-03T10:38:03.162Z,10.77
2022-08-03T10:39:16.418Z,11.94
2022-08-03T10:40:39.511Z,11.90
2022-08-03T10:41:28.102Z,11.24
2022-08-03T10:42:31.398Z,9.70
2022-08-03T10:43:38.021Z,11.31
2022-08-03T10:44:42.365Z,11.17
2022-08-03T10:45:46.348Z,10.78
2022-08-03T10:47:10.598Z,10.27
2022-08-03T10:48:14.302Z,11.22
2022-08-03T10:49:33.784Z,10.20
2022-08-03T10:50:27.798Z,10.74
2022-08-03T10:51:32.354Z,9.71
2022-08-03T10:52:41.277Z,9.33
2022-08-03T10:53:44.183Z,9.84
2022-08-03T10:55:07.575Z,10.11
2022-08-03T10:56:54.651Z,9.96
2022-08-03T10:57:58.869Z,9.67
2022-08-03T10:59:03.790Z,9.89
2022-08-03T11:00:09.299Z,9.76
2022-08-03T11:01:13.064Z,9.34
2022-08-03T11:02:17.499Z,8.58
2022-08-03T11:03:20.725Z,8.38
2022-08-03T11:04:25.295Z,8.24
2022-08-03T11:05:30.782Z,8.52
2022-08-03T11:06:37.287Z,7.79
2022-08-03T11:07:40.338Z,7.74
2022-08-03T11:08:43.313Z,7.76
2022-08-03T11:09:48.756Z,7.83
2022-08-03T11:10:55.486Z,8.44
2022-08-03T11:12:02.092Z,8.54
2022-08-03T11:13:10.613Z,9.21
2022-08-03T11:14:20.945Z,8.88
2022-08-03T11:15:27.576Z,7.99
2022-08-03T11:16:35.068Z,8.47
2022-08-03T11:17:46.433Z,8.49
2022-08-03T11:18:58.259Z,8.93
2022-08-03T11:20:01.598Z,9.01
2022-08-03T11:21:04.782Z,8.18
2022-08-03T11:22:07.792Z,7.86
2022-08-03T11:23:10.972Z,8.05
2022-08-03T11:24:49.374Z,8.17
2022-08-03T11:26:14.585Z,7.86
2022-08-03T11:27:19.732Z,9.03
2022-08-03T11:28:30.650Z,7.84
2022-08-03T11:29:34.012Z,8.02
2022-08-03T11:30:38.808Z,7.28
2022-08-03T11:31:50.765Z,8.44
2022-08-03T11:32:52.603Z,7.68
2022-08-03T11:34:07.766Z,7.32
2022-08-03T11:35:19.375Z,7.61
2022-08-03T11:36:32.423Z,7.33
2022-08-03T11:37:33.151Z,8.93
2022-08-03T11:38:32.838Z,8.48
2022-08-03T11:40:54.767Z,7.77
2022-08-03T11:41:57.783Z,7.91
2022-08-03T11:43:01.449Z,7.18
2022-08-03T11:44:04.663Z,7.40
2022-08-03T11:45:09.583Z,6.94
2022-08-03T11:46:29.390Z,6.74
2022-08-03T11:47:26.480Z,6.98
2022-08-03T11:48:37.646Z,6.69
2022-08-03T11:49:41.102Z,6.73
2022-08-03T11:50:44.914Z,6.74
2022-08-03T11:51:51.754Z,6.99
2022-08-03T11:52:55.008Z,6.18
2022-08-03T11:54:00.792Z,6.82
2022-08-03T11:55:09.260Z,6.68
2022-08-03T11:56:13.621Z,7.41
2022-08-03T11:59:01.608Z,6.44
2022-08-03T11:59:42.174Z,6.03
2022-08-03T12:00:45.403Z,6.26
2022-08-03T12:01:48.762Z,6.59
2022-08-03T12:03:06.955Z,6.22
2022-08-03T12:04:11.222Z,6.03
2022-08-03T12:05:14.304Z,5.46
2022-08-03T12:06:18.930Z,4.96
2022-08-03T12:08:02.442Z,5.86
2022-08-03T12:08:30.315Z,5.60
2022-08-03T12:11:10.365Z,4.78
2022-08-03T12:12:15.843Z,5.29
2022-08-03T12:14:05.774Z,4.68
2022-08-03T12:14:51.064Z,4.62
2022-08-03T12:15:33.583Z,4.69
2022-08-03T12:16:37.837Z,4.29
2022-08-03T12:17:41.213Z,4.87
2022-08-03T12:18:44.469Z,4.49
2022-08-03T12:19:47.710Z,4.31
2022-08-03T12:20:52.921Z,4.62
2022-08-03T12:21:56.951Z,4.73
2022-08-03T12:23:05.918Z,4.66
2022-08-03T12:24:09.244Z,4.86
2022-08-03T12:25:38.769Z,4.66
2022-08-03T12:26:32.537Z,4.76
2022-08-03T12:27:36.085Z,4.84
2022-08-03T12:28:44.217Z,4.33
2022-08-03T12:29:58.609Z,4.72
2022-08-03T12:30:57.905Z,4.75
2022-08-03T12:32:01.577Z,4.98
2022-08-03T12:33:14.888Z,4.62
2022-08-03T12:34:18.276Z,4.88
2022-08-03T12:35:23.896Z,4.44
2022-08-03T12:36:31.244Z,4.80
2022-08-03T12:37:34.601Z,4.82
2022-08-03T12:38:39.522Z,4.31
2022-08-03T12:40:02.107Z,4.81
2022-08-03T12:41:01.341Z,4.38
2022-08-03T12:42:04.712Z,5.11
2022-08-03T12:43:12.362Z,7.66
2022-08-03T12:44:15.663Z,4.43
2022-08-03T12:45:24.561Z,5.14
2022-08-03T12:46:36.531Z,4.87
2022-08-03T12:49:15.682Z,5.37
2022-08-03T12:50:26.254Z,5.24
2022-08-03T12:51:32.290Z,5.12
2022-08-03T12:52:39.104Z,5.07
2022-08-03T12:53:42.098Z,4.81
2022-08-03T12:54:56.248Z,4.46
2022-08-03T12:56:05.705Z,5.36
2022-08-03T12:57:16.132Z,4.73
2022-08-03T12:58:20.667Z,4.89
2022-08-03T12:59:32.353Z,5.42
2022-08-03T13:00:31.131Z,5.12
2022-08-03T13:01:38.599Z,4.97
2022-08-03T13:02:46.499Z,5.24
2022-08-03T13:03:53.009Z,5.37
2022-08-03T13:04:55.551Z,4.95
2022-08-03T13:05:58.761Z,5.04
2022-08-03T13:07:12.649Z,4.83
2022-08-03T13:08:20.597Z,4.24
2022-08-03T13:09:25.460Z,5.24
2022-08-03T13:10:31.062Z,4.98
2022-08-03T13:11:57.954Z,4.79
2022-08-03T13:12:48.050Z,5.41
2022-08-03T13:13:52.518Z,4.74
2022-08-03T13:14:57.858Z,4.58
2022-08-03T13:16:00.858Z,5.02
2022-08-03T13:17:05.891Z,4.42
2022-08-03T13:18:09.071Z,4.89
2022-08-03T13:19:15.536Z,4.96
2022-08-03T13:20:17.665Z,5.79
2022-08-03T13:21:21.103Z,5.00
2022-08-03T13:22:28.387Z,4.60
2022-08-03T13:23:31.923Z,5.16
2022-08-03T13:24:34.910Z,4.43
2022-08-03T13:25:38.205Z,5.19
2022-08-03T13:26:42.995Z,4.54
2022-08-03T13:28:03.447Z,5.11
2022-08-03T13:28:51.390Z,5.23
2022-08-03T13:29:55.004Z,4.94
2022-08-03T13:30:58.109Z,4.81
2022-08-03T13:32:02.329Z,4.42
2022-08-03T13:33:05.759Z,4.67
2022-08-03T13:34:09.050Z,4.89
2022-08-03T13:35:12.104Z,4.47
2022-08-03T13:36:17.754Z,5.87
2022-08-03T13:37:21.252Z,5.36
2022-08-03T13:38:26.984Z,4.48
2022-08-03T13:39:32.453Z,5.09
2022-08-03T13:40:41.713Z,5.22
2022-08-03T13:41:40.391Z,4.95
2022-08-03T13:42:43.333Z,4.92
2022-08-03T13:43:46.550Z,4.97
2022-08-03T13:44:50.190Z,5.12
2022-08-03T13:45:57.617Z,5.03
2022-08-03T13:47:00.190Z,4.58
2022-08-03T13:48:03.335Z,5.10
2022-08-03T13:49:07.004Z,5.19
2022-08-03T13:50:10.827Z,4.65
2022-08-03T13:51:22.415Z,4.84
2022-08-03T13:52:19.383Z,5.14
2022-08-03T13:53:24.052Z,5.18
2022-08-03T13:54:27.316Z,5.08
2022-08-03T13:55:30.384Z,4.63
2022-08-03T13:56:33.475Z,5.09
2022-08-03T13:58:11.448Z,4.94
2022-08-03T13:58:41.507Z,4.92
2022-08-03T13:59:44.475Z,4.81
2022-08-03T14:00:47.632Z,4.81
2022-08-03T14:01:55.526Z,4.78
2022-08-03T14:03:09.046Z,5.30
2022-08-03T14:04:06.227Z,5.24
2022-08-03T14:05:11.279Z,5.67
2022-08-03T14:06:14.877Z,4.82
2022-08-03T14:07:18.436Z,5.36
2022-08-03T14:08:21.535Z,5.69
2022-08-03T14:09:24.599Z,5.53
2022-08-03T14:10:27.686Z,5.10
2022-08-03T14:12:08.175Z,4.86
2022-08-03T14:12:35.899Z,4.93
2022-08-03T14:13:38.947Z,5.61
2022-08-03T14:14:42.078Z,5.63
2022-08-03T14:15:50.243Z,6.04
2022-08-03T14:16:51.660Z,5.73
2022-08-03T14:17:58.695Z,5.38
2022-08-03T14:19:01.637Z,5.52
2022-08-03T14:20:36.946Z,5.67
2022-08-03T14:21:12.619Z,5.42
2022-08-03T14:22:17.367Z,5.23
2022-08-03T14:23:20.547Z,4.98
2022-08-03T14:24:25.056Z,5.31
2022-08-03T14:25:28.100Z,6.10
2022-08-03T14:26:31.480Z,5.26
2022-08-03T14:27:34.445Z,4.94
2022-08-03T14:28:37.631Z,5.34
2022-08-03T14:29:40.835Z,5.49
2022-08-03T14:30:43.938Z,5.71
2022-08-03T14:32:10.466Z,5.53
2022-08-03T14:32:51.836Z,5.77